createdAt,value
2017-01-23T00:00:12.459Z,49.90
2017-01-23T00:01:12.318Z,49.80
2017-01-23T00:02:12.246Z,49.80
2017-01-23T00:03:12.848Z,49.90
2017-01-23T00:04:12.499Z,49.90
2017-01-23T00:05:12.077Z,49.80
2017-01-23T00:06:12.810Z,49.90
2017-01-23T00:07:13.386Z,49.90
2017-01-23T00:08:12.538Z,49.80
2017-01-23T00:09:12.080Z,50.00
2017-01-23T00:10:12.171Z,49.90
2017-01-23T00:11:09.537Z,is
2017-01-23T00:12:12.376Z,49.90
2017-01-23T00:13:12.359Z,49.80
2017-01-23T00:14:13.131Z,49.70
2017-01-23T00:15:12.886Z,49.90
2017-01-23T00:16:12.785Z,49.90
2017-01-23T00:17:17.327Z,49.80
2017-01-23T00:18:13.898Z,49.90
2017-01-23T00:19:13.564Z,49.90
2017-01-23T00:20:12.259Z,49.90
2017-01-23T00:21:12.285Z,49.80
2017-01-23T00:22:10.856Z,is
2017-01-23T00:23:10.878Z,is
2017-01-23T00:24:13.131Z,49.80
2017-01-23T00:25:12.168Z,49.80
2017-01-23T00:26:12.946Z,49.80
2017-01-23T00:27:12.567Z,49.80
2017-01-23T00:28:09.657Z,is
2017-01-23T00:29:12.464Z,49.80
2017-01-23T00:30:12.160Z,49.90
2017-01-23T00:31:12.245Z,49.80
2017-01-23T00:32:13.777Z,49.90
2017-01-23T00:33:12.249Z,49.80
2017-01-23T00:34:12.661Z,49.80
2017-01-23T00:35:14.068Z,49.90
2017-01-23T00:36:10.663Z,is
2017-01-23T00:37:12.723Z,49.80
2017-01-23T00:38:11.643Z,49.80
2017-01-23T00:39:12.152Z,49.80
2017-01-23T00:40:12.249Z,49.80
2017-01-23T00:41:12.278Z,49.70
2017-01-23T00:42:10.724Z,is
2017-01-23T00:43:10.376Z,is
2017-01-23T00:44:12.155Z,50.00
2017-01-23T00:45:12.123Z,50.00
2017-01-23T00:46:13.613Z,50.20
2017-01-23T00:47:12.398Z,50.80
2017-01-23T00:48:13.363Z,50.10
2017-01-23T00:49:13.550Z,50.20
2017-01-23T00:50:11.663Z,50.20
2017-01-23T00:51:11.743Z,50.10
2017-01-23T00:52:12.334Z,50.20
2017-01-23T00:53:13.039Z,50.30
2017-01-23T00:54:13.888Z,50.30
2017-01-23T00:55:14.578Z,50.20
2017-01-23T00:56:12.237Z,50.30
2017-01-23T00:57:12.207Z,50.10
2017-01-23T00:58:13.122Z,50.30
2017-01-23T00:59:12.926Z,50.30
2017-01-23T01:00:10.551Z,is
2017-01-23T01:01:13.162Z,50.20
2017-01-23T01:02:15.224Z,50.40
2017-01-23T01:03:13.107Z,50.30
2017-01-23T01:04:15.144Z,50.30
2017-01-23T01:05:12.818Z,50.30
2017-01-23T01:06:12.627Z,50.30
2017-01-23T01:07:12.519Z,50.20
2017-01-23T01:08:14.248Z,50.20
2017-01-23T01:09:12.298Z,50.10
2017-01-23T01:10:14.493Z,50.30
2017-01-23T01:11:11.539Z,50.10
2017-01-23T01:12:14.007Z,50.10
2017-01-23T01:13:12.063Z,50.20
2017-01-23T01:14:12.253Z,50.20
2017-01-23T01:15:13.769Z,50.30
2017-01-23T01:16:12.132Z,50.20
2017-01-23T01:17:12.231Z,50.10
2017-01-23T01:18:12.691Z,50.20
2017-01-23T01:19:15.352Z,50.30
2017-01-23T01:20:13.822Z,50.30
2017-01-23T01:21:12.887Z,50.30
2017-01-23T01:22:12.341Z,50.30
2017-01-23T01:23:14.240Z,50.30
2017-01-23T01:24:13.349Z,50.40
2017-01-23T01:25:15.119Z,50.30
2017-01-23T01:26:12.484Z,50.30
2017-01-23T01:27:14.452Z,50.30
2017-01-23T01:28:12.492Z,50.30
2017-01-23T01:29:12.670Z,50.20
2017-01-23T01:30:13.472Z,50.40
2017-01-23T01:31:12.060Z,50.30
2017-01-23T01:32:12.089Z,50.30
2017-01-23T01:33:13.612Z,49.80
2017-01-23T01:34:13.150Z,50.30
2017-01-23T01:35:13.255Z,50.30
2017-01-23T01:36:12.652Z,50.20
2017-01-23T01:37:13.153Z,50.30
2017-01-23T01:38:10.728Z,is
2017-01-23T01:39:14.322Z,50.30
2017-01-23T01:40:13.386Z,50.40
2017-01-23T01:41:12.971Z,50.30
2017-01-23T01:42:14.292Z,50.30
2017-01-23T01:43:13.357Z,50.40
2017-01-23T01:44:12.064Z,50.30
2017-01-23T01:45:12.113Z,50.30
2017-01-23T01:46:13.951Z,50.30
2017-01-23T01:47:10.751Z,is
2017-01-23T01:48:13.863Z,50.70
2017-01-23T01:49:11.961Z,50.30
2017-01-23T01:50:11.973Z,50.20
2017-01-23T01:51:09.296Z,is
2017-01-23T01:52:10.515Z,is
2017-01-23T01:53:13.568Z,50.20
2017-01-23T01:54:12.103Z,50.20
2017-01-23T01:55:13.581Z,50.20
2017-01-23T01:56:12.681Z,50.30
2017-01-23T01:57:11.559Z,50.30
2017-01-23T01:58:12.137Z,50.20
2017-01-23T01:59:13.749Z,50.30
2017-01-23T02:00:12.442Z,50.10
2017-01-23T02:01:10.439Z,is
2017-01-23T02:02:14.152Z,50.20
2017-01-23T02:03:13.480Z,50.20
2017-01-23T02:04:13.294Z,50.10
2017-01-23T02:05:12.437Z,50.20
2017-01-23T02:06:12.039Z,50.20
2017-01-23T02:07:12.370Z,50.20
2017-01-23T02:08:12.372Z,49.40
2017-01-23T02:09:11.462Z,50.10
2017-01-23T02:10:13.041Z,50.30
2017-01-23T02:11:11.982Z,50.20
2017-01-23T02:12:12.825Z,50.10
2017-01-23T02:13:13.502Z,50.10
2017-01-23T02:14:12.606Z,50.10
2017-01-23T02:15:13.278Z,50.20
2017-01-23T02:16:12.272Z,50.20
2017-01-23T02:17:13.168Z,50.20
2017-01-23T02:18:13.852Z,50.30
2017-01-23T02:19:13.504Z,50.20
2017-01-23T02:20:12.036Z,50.20
2017-01-23T02:21:12.672Z,50.20
2017-01-23T02:22:09.711Z,is
2017-01-23T02:23:12.997Z,50.30
2017-01-23T02:24:12.990Z,50.20
2017-01-23T02:25:11.972Z,50.10
2017-01-23T02:26:12.044Z,50.30
2017-01-23T02:27:12.849Z,50.30
2017-01-23T02:28:12.460Z,50.20
2017-01-23T02:29:13.447Z,50.30
2017-01-23T02:30:13.241Z,50.20
2017-01-23T02:31:12.690Z,50.20
2017-01-23T02:32:12.304Z,50.20
2017-01-23T02:33:10.333Z,is
2017-01-23T02:34:11.518Z,50.20
2017-01-23T02:35:09.999Z,is
2017-01-23T02:36:13.101Z,50.20
2017-01-23T02:37:12.636Z,50.10
2017-01-23T02:38:12.287Z,50.20
2017-01-23T02:39:13.127Z,50.20
2017-01-23T02:40:13.186Z,50.30
2017-01-23T02:41:12.872Z,50.20
2017-01-23T02:42:11.886Z,50.20
2017-01-23T02:43:12.539Z,50.20
2017-01-23T02:44:09.332Z,is
2017-01-23T02:45:12.301Z,50.10
2017-01-23T02:46:12.818Z,50.10
2017-01-23T02:47:13.173Z,50.10
2017-01-23T02:48:12.305Z,50.10
2017-01-23T02:49:13.703Z,50.10
2017-01-23T02:50:12.159Z,50.10
2017-01-23T02:51:12.112Z,50.00
2017-01-23T02:52:12.439Z,50.00
2017-01-23T02:53:12.075Z,50.10
2017-01-23T02:54:12.878Z,50.00
2017-01-23T02:55:12.536Z,50.00
2017-01-23T02:56:12.079Z,50.10
2017-01-23T02:57:14.253Z,50.20
2017-01-23T02:58:13.869Z,50.10
2017-01-23T02:59:13.240Z,50.20
2017-01-23T03:00:13.493Z,50.00
2017-01-23T03:01:12.898Z,50.00
2017-01-23T03:02:13.003Z,50.00
2017-01-23T03:03:12.192Z,50.10
2017-01-23T03:04:12.913Z,50.10
2017-01-23T03:05:13.062Z,50.10
2017-01-23T03:06:13.461Z,50.20
2017-01-23T03:07:11.399Z,50.10
2017-01-23T03:08:11.441Z,50.10
2017-01-23T03:09:12.131Z,50.10
2017-01-23T03:10:13.295Z,50.10
2017-01-23T03:11:13.044Z,50.00
2017-01-23T03:12:12.952Z,50.10
2017-01-23T03:13:12.531Z,50.10
2017-01-23T03:14:11.915Z,50.00
2017-01-23T03:15:12.631Z,50.10
2017-01-23T03:16:12.307Z,50.00
2017-01-23T03:17:11.346Z,is
2017-01-23T03:18:12.290Z,50.10
2017-01-23T03:19:12.765Z,50.00
2017-01-23T03:20:12.424Z,50.00
2017-01-23T03:21:10.229Z,is
2017-01-23T03:22:13.203Z,50.00
2017-01-23T03:23:13.048Z,50.10
2017-01-23T03:24:12.526Z,50.00
2017-01-23T03:25:12.862Z,50.00
2017-01-23T03:26:14.534Z,50.00
2017-01-23T03:27:11.655Z,50.00
2017-01-23T03:28:12.910Z,50.10
2017-01-23T03:29:11.957Z,50.00
2017-01-23T03:30:12.004Z,50.10
2017-01-23T03:31:12.756Z,50.10
2017-01-23T03:32:11.701Z,50.00
2017-01-23T03:33:11.576Z,50.10
2017-01-23T03:34:12.167Z,50.00
2017-01-23T03:35:12.844Z,50.00
2017-01-23T03:36:12.946Z,50.00
2017-01-23T03:37:10.542Z,is
2017-01-23T03:38:11.924Z,49.20
2017-01-23T03:39:10.750Z,is
2017-01-23T03:40:10.728Z,is
2017-01-23T03:41:13.115Z,50.00
2017-01-23T03:42:12.784Z,50.10
2017-01-23T03:43:12.496Z,50.10
2017-01-23T03:44:11.548Z,50.00
2017-01-23T03:45:10.278Z,is
2017-01-23T03:46:12.186Z,50.00
2017-01-23T03:47:12.815Z,50.10
2017-01-23T03:48:10.799Z,is
2017-01-23T03:49:11.964Z,50.00
2017-01-23T03:50:12.751Z,49.90
2017-01-23T03:51:12.644Z,50.00
2017-01-23T03:52:12.358Z,50.00
2017-01-23T03:53:12.073Z,50.00
2017-01-23T03:54:12.870Z,50.00
2017-01-23T03:55:09.789Z,is
2017-01-23T03:56:12.505Z,49.90
2017-01-23T03:57:11.583Z,49.90
2017-01-23T03:58:12.626Z,50.00
2017-01-23T03:59:12.556Z,50.00
2017-01-23T04:00:09.556Z,is
2017-01-23T04:01:10.653Z,is
2017-01-23T04:02:11.934Z,49.90
2017-01-23T04:03:13.178Z,50.00
2017-01-23T04:04:12.809Z,50.00
2017-01-23T04:05:13.457Z,50.00
2017-01-23T04:06:12.107Z,50.30
2017-01-23T04:07:12.072Z,49.90
2017-01-23T04:08:11.945Z,49.80
2017-01-23T04:09:10.645Z,is
2017-01-23T04:10:14.545Z,50.00
2017-01-23T04:11:12.229Z,49.90
2017-01-23T04:12:12.729Z,50.00
2017-01-23T04:13:09.841Z,is
2017-01-23T04:14:12.809Z,49.90
2017-01-23T04:15:12.216Z,49.80
2017-01-23T04:16:13.968Z,50.00
2017-01-23T04:17:12.062Z,49.90
2017-01-23T04:18:13.810Z,50.00
2017-01-23T04:19:12.509Z,50.20
2017-01-23T04:20:13.396Z,50.30
2017-01-23T04:21:12.138Z,50.30
2017-01-23T04:22:15.043Z,50.20
2017-01-23T04:23:12.847Z,50.20
2017-01-23T04:24:12.458Z,50.30
2017-01-23T04:25:12.379Z,50.40
2017-01-23T04:26:14.016Z,50.40
2017-01-23T04:27:12.565Z,50.40
2017-01-23T04:28:10.368Z,is
2017-01-23T04:29:12.747Z,50.30
2017-01-23T04:30:12.880Z,50.20
2017-01-23T04:31:13.553Z,50.10
2017-01-23T04:32:10.686Z,is
2017-01-23T04:33:11.746Z,50.00
2017-01-23T04:34:11.861Z,50.10
2017-01-23T04:35:12.658Z,50.10
2017-01-23T04:36:12.630Z,50.00
2017-01-23T04:37:12.237Z,50.10
2017-01-23T04:38:13.026Z,50.30
2017-01-23T04:39:10.709Z,is
2017-01-23T04:40:12.332Z,50.10
2017-01-23T04:41:10.746Z,is
2017-01-23T04:42:13.010Z,50.10
2017-01-23T04:43:12.511Z,50.00
2017-01-23T04:44:12.151Z,50.10
2017-01-23T04:45:14.721Z,50.00
2017-01-23T04:46:11.870Z,50.00
2017-01-23T04:47:09.813Z,is
2017-01-23T04:48:14.267Z,50.00
2017-01-23T04:49:12.255Z,50.00
2017-01-23T04:50:11.485Z,50.00
2017-01-23T04:51:10.280Z,is
2017-01-23T04:52:12.339Z,50.00
2017-01-23T04:53:12.921Z,50.00
2017-01-23T04:54:12.042Z,50.00
2017-01-23T04:55:12.591Z,50.00
2017-01-23T04:56:12.634Z,50.00
2017-01-23T04:57:10.076Z,is
2017-01-23T04:58:11.767Z,49.90
2017-01-23T04:59:11.779Z,50.00
2017-01-23T05:00:12.380Z,49.90
2017-01-23T05:01:13.031Z,50.00
2017-01-23T05:02:12.827Z,50.00
2017-01-23T05:03:11.839Z,50.00
2017-01-23T05:04:13.569Z,49.90
2017-01-23T05:05:12.004Z,50.00
2017-01-23T05:06:12.600Z,49.90
2017-01-23T05:07:13.194Z,49.30
2017-01-23T05:08:12.321Z,49.90
2017-01-23T05:09:12.855Z,49.80
2017-01-23T05:10:11.774Z,49.90
2017-01-23T05:11:11.751Z,49.90
2017-01-23T05:12:11.963Z,49.90
2017-01-23T05:13:12.538Z,50.00
2017-01-23T05:14:11.727Z,49.90
2017-01-23T05:15:12.428Z,49.90
2017-01-23T05:16:12.535Z,49.90
2017-01-23T05:17:13.640Z,49.80
2017-01-23T05:18:11.746Z,49.70
2017-01-23T05:19:11.799Z,49.80
2017-01-23T05:20:12.622Z,49.90
2017-01-23T05:21:11.521Z,49.80
2017-01-23T05:22:12.499Z,49.90
2017-01-23T05:23:14.424Z,49.70
2017-01-23T05:24:12.000Z,49.90
2017-01-23T05:25:12.980Z,49.90
2017-01-23T05:26:13.241Z,49.70
2017-01-23T05:27:12.829Z,49.80
2017-01-23T05:28:13.017Z,49.80
2017-01-23T05:29:14.092Z,49.90
2017-01-23T05:30:11.687Z,is
2017-01-23T05:31:10.771Z,is
2017-01-23T05:32:12.029Z,49.80
2017-01-23T05:33:12.582Z,49.70
2017-01-23T05:34:12.667Z,50.30
2017-01-23T05:35:12.176Z,49.70
2017-01-23T05:36:10.948Z,is
2017-01-23T05:37:12.918Z,49.80
2017-01-23T05:38:12.668Z,49.70
2017-01-23T05:39:11.770Z,49.70
2017-01-23T05:40:12.605Z,49.60
2017-01-23T05:41:12.040Z,49.60
2017-01-23T05:42:12.040Z,49.60
2017-01-23T05:43:11.928Z,49.70
2017-01-23T05:44:12.513Z,49.80
2017-01-23T05:45:12.540Z,49.70
2017-01-23T05:46:11.441Z,49.60
2017-01-23T05:47:12.209Z,49.70
2017-01-23T05:48:13.991Z,49.60
2017-01-23T05:49:12.218Z,49.60
2017-01-23T05:50:12.209Z,49.60
2017-01-23T05:51:12.163Z,49.60
2017-01-23T05:52:12.281Z,49.60
2017-01-23T05:53:12.505Z,49.60
2017-01-23T05:54:11.812Z,49.50
2017-01-23T05:55:12.243Z,49.60
2017-01-23T05:56:12.936Z,49.60
2017-01-23T05:57:12.511Z,49.60
2017-01-23T05:58:12.421Z,49.60
2017-01-23T05:59:12.802Z,49.70
2017-01-23T06:00:11.851Z,49.60
2017-01-23T06:01:11.880Z,49.60
2017-01-23T06:02:12.014Z,49.50
2017-01-23T06:03:12.676Z,49.70
2017-01-23T06:04:12.207Z,49.60
2017-01-23T06:05:12.959Z,49.70
2017-01-23T06:06:13.157Z,49.70
2017-01-23T06:07:12.789Z,49.70
2017-01-23T06:08:12.714Z,49.60
2017-01-23T06:09:13.151Z,49.60
2017-01-23T06:10:12.184Z,49.50
2017-01-23T06:11:10.866Z,is
2017-01-23T06:12:12.671Z,49.70
2017-01-23T06:13:11.721Z,49.70
2017-01-23T06:14:12.772Z,49.70
2017-01-23T06:15:11.782Z,49.60
2017-01-23T06:16:12.540Z,49.70
2017-01-23T06:17:11.771Z,49.60
2017-01-23T06:18:10.468Z,is
2017-01-23T06:19:10.686Z,is
2017-01-23T06:20:13.057Z,49.60
2017-01-23T06:21:12.899Z,49.80
2017-01-23T06:22:13.006Z,49.60
2017-01-23T06:23:12.481Z,49.70
2017-01-23T06:24:12.434Z,49.70
2017-01-23T06:25:12.471Z,49.70
2017-01-23T06:26:10.384Z,is
2017-01-23T06:27:12.282Z,49.50
2017-01-23T06:28:12.927Z,49.70
2017-01-23T06:29:13.190Z,49.70
2017-01-23T06:30:15.969Z,49.60
2017-01-23T06:31:12.845Z,49.70
2017-01-23T06:32:12.829Z,49.60
2017-01-23T06:33:10.441Z,is
2017-01-23T06:34:13.283Z,49.60
2017-01-23T06:35:11.479Z,49.60
2017-01-23T06:36:12.199Z,49.60
2017-01-23T06:37:13.197Z,49.70
2017-01-23T06:38:12.113Z,49.60
2017-01-23T06:39:12.091Z,49.60
2017-01-23T06:40:12.164Z,49.50
2017-01-23T06:41:12.207Z,49.60
2017-01-23T06:42:13.977Z,49.70
2017-01-23T06:43:11.913Z,49.60
2017-01-23T06:44:12.555Z,49.60
2017-01-23T06:45:12.184Z,50.10
2017-01-23T06:46:12.278Z,50.20
2017-01-23T06:47:12.818Z,50.20
2017-01-23T06:48:12.198Z,50.00
2017-01-23T06:49:12.128Z,49.90
2017-01-23T06:50:12.816Z,49.90
2017-01-23T06:51:12.398Z,49.70
2017-01-23T06:52:10.458Z,is
2017-01-23T06:53:12.392Z,49.70
2017-01-23T06:54:09.179Z,is
2017-01-23T06:55:12.749Z,49.70
2017-01-23T06:56:11.890Z,49.50
2017-01-23T06:57:12.225Z,49.60
2017-01-23T06:58:09.741Z,is
2017-01-23T06:59:11.957Z,49.60
2017-01-23T07:00:11.864Z,49.60
2017-01-23T07:01:11.860Z,49.60
2017-01-23T07:02:12.429Z,49.60
2017-01-23T07:03:10.169Z,is
2017-01-23T07:04:12.379Z,49.60
2017-01-23T07:05:10.407Z,is
2017-01-23T07:06:12.267Z,49.70
2017-01-23T07:07:12.281Z,49.60
2017-01-23T07:08:14.838Z,49.50
2017-01-23T07:09:12.032Z,49.70
2017-01-23T07:10:13.836Z,49.70
2017-01-23T07:11:11.730Z,49.70
2017-01-23T07:12:12.223Z,49.60
2017-01-23T07:13:12.208Z,49.60
2017-01-23T07:14:12.906Z,49.70
2017-01-23T07:15:12.986Z,49.60
2017-01-23T07:16:12.129Z,49.60
2017-01-23T07:17:13.368Z,49.70
2017-01-23T07:18:11.247Z,is
2017-01-23T07:19:13.771Z,49.80
2017-01-23T07:20:12.440Z,49.80
2017-01-23T07:21:11.874Z,49.60
2017-01-23T07:22:12.849Z,49.80
2017-01-23T07:23:12.577Z,49.50
2017-01-23T07:24:11.622Z,49.80
2017-01-23T07:25:11.570Z,49.70
2017-01-23T07:26:11.639Z,49.70
2017-01-23T07:27:11.779Z,49.60
2017-01-23T07:28:11.950Z,49.70
2017-01-23T07:29:12.692Z,49.80
2017-01-23T07:30:12.289Z,49.80
2017-01-23T07:31:11.401Z,49.70
2017-01-23T07:32:12.145Z,49.80
2017-01-23T07:33:13.771Z,47.60
2017-01-23T07:34:13.378Z,49.10
2017-01-23T07:35:11.884Z,48.90
2017-01-23T07:36:11.726Z,48.50
2017-01-23T07:37:12.363Z,48.80
2017-01-23T07:38:12.408Z,49.10
2017-01-23T07:39:12.067Z,49.10
2017-01-23T07:40:12.130Z,49.10
2017-01-23T07:41:12.667Z,49.10
2017-01-23T07:42:12.244Z,49.20
2017-01-23T07:43:12.291Z,49.10
2017-01-23T07:44:10.700Z,is
2017-01-23T07:45:12.923Z,49.20
2017-01-23T07:46:11.913Z,49.20
2017-01-23T07:47:11.895Z,49.20
2017-01-23T07:48:13.335Z,49.20
2017-01-23T07:49:12.420Z,49.40
2017-01-23T07:50:12.232Z,49.50
2017-01-23T07:51:10.235Z,is
2017-01-23T07:52:11.450Z,49.40
2017-01-23T07:53:11.391Z,49.30
2017-01-23T07:54:12.971Z,49.30
2017-01-23T07:55:12.415Z,49.80
2017-01-23T07:56:12.270Z,49.90
2017-01-23T07:57:12.921Z,49.80
2017-01-23T07:58:11.844Z,49.90
2017-01-23T07:59:11.879Z,49.80
2017-01-23T08:00:12.978Z,49.90
2017-01-23T08:01:12.691Z,50.00
2017-01-23T08:02:10.296Z,is
2017-01-23T08:03:10.306Z,is
2017-01-23T08:04:12.940Z,50.00
2017-01-23T08:05:11.946Z,49.90
2017-01-23T08:06:11.926Z,49.80
2017-01-23T08:07:12.711Z,46.60
2017-01-23T08:08:13.171Z,48.20
2017-01-23T08:09:13.254Z,48.30
2017-01-23T08:10:12.376Z,48.40
2017-01-23T08:11:12.502Z,48.30
2017-01-23T08:12:12.157Z,48.50
2017-01-23T08:13:14.764Z,48.50
2017-01-23T08:14:11.708Z,48.40
2017-01-23T08:15:12.488Z,49.40
2017-01-23T08:16:11.442Z,49.90
2017-01-23T08:17:11.682Z,49.90
2017-01-23T08:18:10.475Z,is
2017-01-23T08:19:12.571Z,49.80
2017-01-23T08:20:12.150Z,50.00
2017-01-23T08:21:12.687Z,49.90
2017-01-23T08:22:11.709Z,49.90
2017-01-23T08:23:11.814Z,49.90
2017-01-23T08:24:11.776Z,49.00
2017-01-23T08:25:12.253Z,49.20
2017-01-23T08:26:12.567Z,49.40
2017-01-23T08:27:11.592Z,49.50
2017-01-23T08:28:11.588Z,49.80
2017-01-23T08:29:13.299Z,49.90
2017-01-23T08:30:12.798Z,40.70
2017-01-23T08:31:12.438Z,24.50
2017-01-23T08:32:11.269Z,23.10
2017-01-23T08:33:12.960Z,22.80
2017-01-23T08:34:12.220Z,23.50
2017-01-23T08:35:12.170Z,25.30
2017-01-23T08:36:12.130Z,25.90
2017-01-23T08:37:12.664Z,25.90
2017-01-23T08:38:08.964Z,is
2017-01-23T08:39:12.535Z,26.40
2017-01-23T08:40:11.631Z,26.30
2017-01-23T08:41:12.744Z,26.20
2017-01-23T08:42:14.826Z,31.50
2017-01-23T08:43:12.469Z,34.00
2017-01-23T08:44:11.627Z,33.80
2017-01-23T08:45:11.518Z,33.50
2017-01-23T08:46:11.528Z,34.00
2017-01-23T08:47:11.548Z,34.20
2017-01-23T08:48:12.318Z,35.20
2017-01-23T08:49:13.138Z,35.00
2017-01-23T08:50:11.068Z,is
2017-01-23T08:51:13.330Z,34.80
2017-01-23T08:52:12.329Z,34.90
2017-01-23T08:53:10.875Z,is
2017-01-23T08:54:15.379Z,34.70
2017-01-23T08:55:12.084Z,34.70
2017-01-23T08:56:12.723Z,34.40
2017-01-23T08:57:11.692Z,34.70
2017-01-23T08:58:13.237Z,34.90
2017-01-23T08:59:12.884Z,35.10
2017-01-23T09:00:12.349Z,35.20
2017-01-23T09:01:12.499Z,35.30
2017-01-23T09:02:11.517Z,35.40
2017-01-23T09:03:11.536Z,35.40
2017-01-23T09:04:11.681Z,35.70
2017-01-23T09:05:11.816Z,36.20
2017-01-23T09:06:12.479Z,36.20
2017-01-23T09:07:11.964Z,36.50
2017-01-23T09:08:11.967Z,36.40
2017-01-23T09:09:10.625Z,is
2017-01-23T09:10:12.128Z,36.50
2017-01-23T09:11:10.824Z,is
2017-01-23T09:12:12.548Z,36.50
2017-01-23T09:13:11.658Z,36.90
2017-01-23T09:14:11.715Z,37.10
2017-01-23T09:15:13.398Z,37.30
2017-01-23T09:16:11.339Z,37.30
2017-01-23T09:17:12.581Z,37.60
2017-01-23T09:18:11.527Z,37.60
2017-01-23T09:19:12.256Z,38.00
2017-01-23T09:20:12.734Z,37.90
2017-01-23T09:21:11.748Z,38.00
2017-01-23T09:22:11.834Z,38.00
2017-01-23T09:23:11.851Z,38.30
2017-01-23T09:24:11.848Z,36.80
2017-01-23T09:25:13.455Z,36.90
2017-01-23T09:26:11.465Z,37.70
2017-01-23T09:27:12.984Z,38.20
2017-01-23T09:28:12.678Z,38.90
2017-01-23T09:29:12.145Z,38.60
2017-01-23T09:30:12.681Z,38.50
2017-01-23T09:31:11.688Z,38.40
2017-01-23T09:32:12.430Z,38.80
2017-01-23T09:33:11.630Z,38.70
2017-01-23T09:34:11.582Z,39.00
2017-01-23T09:35:11.708Z,39.10
2017-01-23T09:36:12.190Z,39.30
2017-01-23T09:37:12.796Z,39.20
2017-01-23T09:38:13.453Z,39.50
2017-01-23T09:39:11.340Z,39.50
2017-01-23T09:40:12.900Z,39.80
2017-01-23T09:41:11.945Z,39.80
2017-01-23T09:42:12.448Z,40.10
2017-01-23T09:43:11.586Z,40.20
2017-01-23T09:44:12.055Z,40.30
2017-01-23T09:45:12.120Z,40.50
2017-01-23T09:46:12.149Z,40.60
2017-01-23T09:47:12.585Z,40.70
2017-01-23T09:48:13.538Z,40.90
2017-01-23T09:49:10.367Z,is
2017-01-23T09:50:11.709Z,41.10
2017-01-23T09:51:10.166Z,is
2017-01-23T09:52:10.285Z,is
2017-01-23T09:53:11.587Z,41.40
2017-01-23T09:54:12.228Z,41.40
2017-01-23T09:55:12.290Z,41.50
2017-01-23T09:56:10.792Z,is
2017-01-23T09:57:12.112Z,42.30
2017-01-23T09:58:14.234Z,43.20
2017-01-23T09:59:12.193Z,43.20
2017-01-23T10:00:14.070Z,42.80
2017-01-23T10:01:14.086Z,43.20
2017-01-23T10:02:12.827Z,43.20
2017-01-23T10:03:13.791Z,43.30
2017-01-23T10:04:11.878Z,43.30
2017-01-23T10:05:13.677Z,43.30
2017-01-23T10:06:11.758Z,43.20
2017-01-23T10:07:11.680Z,43.20
2017-01-23T10:08:11.738Z,43.20
2017-01-23T10:09:09.040Z,is
2017-01-23T10:10:12.781Z,43.20
2017-01-23T10:11:12.403Z,43.30
2017-01-23T10:12:13.062Z,43.20
2017-01-23T10:13:12.075Z,43.20
2017-01-23T10:14:12.610Z,43.20
2017-01-23T10:15:10.310Z,is
2017-01-23T10:16:12.282Z,43.20
2017-01-23T10:17:10.943Z,is
2017-01-23T10:18:12.709Z,43.10
2017-01-23T10:19:11.767Z,43.00
2017-01-23T10:20:12.390Z,43.10
2017-01-23T10:21:14.181Z,43.10
2017-01-23T10:22:13.100Z,43.20
2017-01-23T10:23:12.070Z,43.10
2017-01-23T10:24:10.713Z,is
2017-01-23T10:25:12.459Z,43.20
2017-01-23T10:26:12.315Z,43.50
2017-01-23T10:27:12.404Z,43.10
2017-01-23T10:28:13.175Z,43.20
2017-01-23T10:29:12.163Z,43.10
2017-01-23T10:30:12.300Z,43.20
2017-01-23T10:31:12.770Z,43.10
2017-01-23T10:32:12.520Z,43.20
2017-01-23T10:33:12.028Z,43.20
2017-01-23T10:34:11.958Z,43.20
2017-01-23T10:35:12.564Z,43.40
2017-01-23T10:36:11.605Z,43.20
2017-01-23T10:37:11.604Z,43.40
2017-01-23T10:38:12.212Z,43.40
2017-01-23T10:39:12.915Z,43.30
2017-01-23T10:40:11.834Z,43.50
2017-01-23T10:41:12.268Z,43.50
2017-01-23T10:42:12.387Z,43.50
2017-01-23T10:43:12.159Z,43.60
2017-01-23T10:44:10.793Z,is
2017-01-23T10:45:12.169Z,43.60
2017-01-23T10:46:12.528Z,43.50
2017-01-23T10:47:11.900Z,43.70
2017-01-23T10:48:12.891Z,43.80
2017-01-23T10:49:09.791Z,is
2017-01-23T10:50:15.948Z,43.80
2017-01-23T10:51:11.875Z,43.80
2017-01-23T10:52:12.818Z,43.90
2017-01-23T10:53:11.868Z,43.70
2017-01-23T10:54:11.842Z,43.70
2017-01-23T10:55:13.570Z,43.90
2017-01-23T10:56:11.580Z,43.90
2017-01-23T10:57:11.457Z,44.00
2017-01-23T10:58:12.024Z,44.00
2017-01-23T10:59:12.727Z,44.20
2017-01-23T11:00:11.781Z,44.10
2017-01-23T11:01:12.418Z,44.10
2017-01-23T11:02:14.061Z,44.10
2017-01-23T11:03:13.052Z,44.20
2017-01-23T11:04:12.171Z,44.20
2017-01-23T11:05:13.708Z,44.40
2017-01-23T11:06:12.133Z,44.40
2017-01-23T11:07:13.138Z,44.30
2017-01-23T11:08:13.681Z,44.40
2017-01-23T11:09:11.911Z,44.50
2017-01-23T11:10:12.082Z,44.50
2017-01-23T11:11:12.670Z,44.50
2017-01-23T11:12:11.762Z,45.00
2017-01-23T11:13:12.715Z,44.80
2017-01-23T11:14:13.178Z,44.00
2017-01-23T11:15:12.238Z,43.10
2017-01-23T11:16:13.018Z,43.30
2017-01-23T11:17:12.721Z,43.60
2017-01-23T11:18:11.628Z,44.00
2017-01-23T11:19:12.149Z,44.10
2017-01-23T11:20:12.248Z,44.20
2017-01-23T11:21:13.939Z,44.50
2017-01-23T11:22:10.699Z,is
2017-01-23T11:23:13.779Z,44.80
2017-01-23T11:24:11.920Z,45.00
2017-01-23T11:25:12.791Z,45.00
2017-01-23T11:26:12.920Z,45.20
2017-01-23T11:27:13.060Z,45.10
2017-01-23T11:28:12.432Z,45.20
2017-01-23T11:29:11.399Z,45.20
2017-01-23T11:30:12.106Z,45.40
2017-01-23T11:31:12.844Z,45.40
2017-01-23T11:32:11.997Z,45.30
2017-01-23T11:33:12.589Z,45.40
2017-01-23T11:34:12.525Z,45.50
2017-01-23T11:35:10.568Z,is
2017-01-23T11:36:12.158Z,45.90
2017-01-23T11:37:13.217Z,46.10
2017-01-23T11:38:12.544Z,46.00
2017-01-23T11:39:11.970Z,46.00
2017-01-23T11:40:11.871Z,45.80
2017-01-23T11:41:12.676Z,46.00
2017-01-23T11:42:11.711Z,45.80
2017-01-23T11:43:11.700Z,46.10
2017-01-23T11:44:12.550Z,46.20
2017-01-23T11:45:13.117Z,46.10
2017-01-23T11:46:13.093Z,46.00
2017-01-23T11:47:12.769Z,46.00
2017-01-23T11:48:11.805Z,45.90
2017-01-23T11:49:10.041Z,is
2017-01-23T11:50:12.041Z,45.90
2017-01-23T11:51:12.561Z,46.00
2017-01-23T11:52:12.288Z,46.30
2017-01-23T11:53:12.396Z,45.90
2017-01-23T11:54:11.366Z,46.00
2017-01-23T11:55:12.348Z,46.00
2017-01-23T11:56:13.432Z,46.00
2017-01-23T11:57:11.570Z,45.90
2017-01-23T11:58:12.187Z,45.90
2017-01-23T11:59:12.749Z,45.90
2017-01-23T12:00:10.341Z,is
2017-01-23T12:01:11.417Z,46.00
2017-01-23T12:02:11.512Z,45.90
2017-01-23T12:03:13.316Z,46.00
2017-01-23T12:04:13.094Z,46.00
2017-01-23T12:05:12.085Z,46.00
2017-01-23T12:06:10.842Z,is
2017-01-23T12:07:12.642Z,46.00
2017-01-23T12:08:11.702Z,46.40
2017-01-23T12:09:11.640Z,46.40
2017-01-23T12:10:11.898Z,46.20
2017-01-23T12:11:11.760Z,46.20
2017-01-23T12:12:10.323Z,is
2017-01-23T12:13:12.112Z,46.20
2017-01-23T12:14:12.143Z,46.80
2017-01-23T12:15:12.252Z,46.20
2017-01-23T12:16:12.806Z,46.60
2017-01-23T12:17:12.030Z,46.50
2017-01-23T12:18:12.080Z,46.60
2017-01-23T12:19:13.592Z,46.60
2017-01-23T12:20:12.659Z,46.60
2017-01-23T12:21:11.585Z,46.70
2017-01-23T12:22:13.239Z,46.80
2017-01-23T12:23:12.701Z,46.60
2017-01-23T12:24:13.881Z,46.80
2017-01-23T12:25:11.988Z,46.80
2017-01-23T12:26:12.857Z,46.80
2017-01-23T12:27:10.798Z,is
2017-01-23T12:28:11.942Z,46.80
2017-01-23T12:29:10.679Z,is
2017-01-23T12:30:09.802Z,is
2017-01-23T12:31:12.935Z,46.90
2017-01-23T12:32:12.666Z,47.40
2017-01-23T12:33:11.735Z,46.90
2017-01-23T12:34:10.545Z,is
2017-01-23T12:35:11.551Z,47.10
2017-01-23T12:36:13.380Z,47.00
2017-01-23T12:37:11.506Z,47.10
2017-01-23T12:38:12.082Z,47.10
2017-01-23T12:39:10.108Z,is
2017-01-23T12:40:12.770Z,47.10
2017-01-23T12:41:11.768Z,47.30
2017-01-23T12:42:11.992Z,47.10
2017-01-23T12:43:12.369Z,47.20
2017-01-23T12:44:12.113Z,47.30
2017-01-23T12:45:12.469Z,47.20
2017-01-23T12:46:11.946Z,47.20
2017-01-23T12:47:12.657Z,47.50
2017-01-23T12:48:11.755Z,47.50
2017-01-23T12:49:11.671Z,47.40
2017-01-23T12:50:11.722Z,47.50
2017-01-23T12:51:11.747Z,47.40
2017-01-23T12:52:12.229Z,47.40
2017-01-23T12:53:10.272Z,is
2017-01-23T12:54:12.233Z,47.40
2017-01-23T12:55:08.520Z,is
2017-01-23T12:56:11.810Z,47.30
2017-01-23T12:57:12.377Z,47.40
2017-01-23T12:58:12.533Z,47.30
2017-01-23T12:59:11.983Z,47.40
2017-01-23T13:00:11.974Z,47.30